sensor_id;sensor_type;location;lat;lon;timestamp;pressure;altitude;pressure_sealevel;temperature;humidity
78142;BME280;67393;52.620;13.482;2023-02-22T05:07:48;101268.69;;;4.12;100.00
78142;BME280;67393;52.620;13.482;2023-02-22T05:10:14;101259.09;;;4.16;100.00
78142;BME280;67393;52.620;13.482;2023-02-22T05:12:41;101258.31;;;4.28;100.00
78142;BME280;67393;52.620;13.482;2023-02-22T05:15:08;101259.22;;;4.37;100.00
78142;BME280;67393;52.620;13.482;2023-02-22T05:17:34;101254.00;;;4.39;100.00
78142;BME280;67393;52.620;13.482;2023-02-22T05:20:02;101254.06;;;4.54;100.00
78142;BME280;67393;52.620;13.482;2023-02-22T05:22:29;101253.22;;;4.60;100.00
78142;BME280;67393;52.620;13.482;2023-02-22T05:24:55;101261.13;;;4.61;100.00
78142;BME280;67393;52.620;13.482;2023-02-22T05:27:21;101263.75;;;4.61;100.00
78142;BME280;67393;52.620;13.482;2023-02-22T05:29:48;101258.50;;;4.61;100.00
78142;BME280;67393;52.620;13.482;2023-02-22T05:32:14;101260.22;;;4.61;100.00
78142;BME280;67393;52.620;13.482;2023-02-22T05:34:41;101261.06;;;4.52;100.00
78142;BME280;67393;52.620;13.482;2023-02-22T05:37:07;101255.81;;;4.55;100.00
78142;BME280;67393;52.620;13.482;2023-02-22T05:39:33;101256.66;;;4.53;100.00
78142;BME280;67393;52.620;13.482;2023-02-22T05:42:00;101259.34;;;4.57;100.00
78142;BME280;67393;52.620;13.482;2023-02-22T05:44:26;101255.81;;;4.54;100.00
78142;BME280;67393;52.620;13.482;2023-02-22T05:46:52;101261.03;;;4.49;100.00
78142;BME280;67393;52.620;13.482;2023-02-22T05:49:19;101261.88;;;4.40;100.00
78142;BME280;67393;52.620;13.482;2023-02-22T05:51:45;101263.69;;;4.52;100.00
78142;BME280;67393;52.620;13.482;2023-02-22T05:54:11;101269.84;;;4.60;100.00
78142;BME280;67393;52.620;13.482;2023-02-22T05:56:38;101273.34;;;4.55;100.00
78142;BME280;67393;52.620;13.482;2023-02-22T05:59:04;101274.25;;;4.64;100.00
78142;BME280;67393;52.620;13.482;2023-02-22T06:01:30;101273.34;;;4.61;100.00
78142;BME280;67393;52.620;13.482;2023-02-22T06:03:57;101276.03;;;4.67;100.00
78142;BME280;67393;52.620;13.482;2023-02-22T06:06:23;101269.88;;;4.65;100.00
78142;BME280;67393;52.620;13.482;2023-02-22T06:08:49;101276.88;;;4.58;100.00
78142;BME280;67393;52.620;13.482;2023-02-22T06:11:16;101274.22;;;4.54;100.00
78142;BME280;67393;52.620;13.482;2023-02-22T06:13:48;101270.69;;;4.50;100.00
78142;BME280;67393;52.620;13.482;2023-02-22T06:16:14;101279.50;;;4.60;100.00
78142;BME280;67393;52.620;13.482;2023-02-22T06:18:40;101278.59;;;4.56;100.00
78142;BME280;67393;52.620;13.482;2023-02-22T06:21:08;101288.25;;;4.54;100.00
78142;BME280;67393;52.620;13.482;2023-02-22T06:23:34;101287.47;;;4.74;100.00
78142;BME280;67393;52.620;13.482;2023-02-22T06:26:01;101286.59;;;4.78;100.00
78142;BME280;67393;52.620;13.482;2023-02-22T06:28:27;101290.13;;;4.77;100.00
78142;BME280;67393;52.620;13.482;2023-02-22T06:30:53;101288.41;;;4.96;100.00
78142;BME280;67393;52.620;13.482;2023-02-22T06:33:20;101286.69;;;5.02;100.00
78142;BME280;67393;52.620;13.482;2023-02-22T06:35:46;101282.28;;;4.95;100.00
78142;BME280;67393;52.620;13.482;2023-02-22T06:38:19;101293.69;;;4.96;100.00
78142;BME280;67393;52.620;13.482;2023-02-22T06:40:46;101298.09;;;5.01;100.00
78142;BME280;67393;52.620;13.482;2023-02-22T06:43:12;101303.38;;;5.06;100.00
78142;BME280;67393;52.620;13.482;2023-02-22T06:45:38;101303.38;;;5.06;100.00
78142;BME280;67393;52.620;13.482;2023-02-22T06:48:05;101297.28;;;5.16;100.00
78142;BME280;67393;52.620;13.482;2023-02-22T06:50:31;101298.13;;;5.06;100.00
78142;BME280;67393;52.620;13.482;2023-02-22T06:53:01;101299.03;;;5.16;100.00
78142;BME280;67393;52.620;13.482;2023-02-22T06:55:30;101300.78;;;5.17;100.00
78142;BME280;67393;52.620;13.482;2023-02-22T06:57:57;101306.03;;;5.18;100.00
78142;BME280;67393;52.620;13.482;2023-02-22T07:00:25;101313.97;;;5.24;100.00
78142;BME280;67393;52.620;13.482;2023-02-22T07:02:53;101311.31;;;5.18;100.00
78142;BME280;67393;52.620;13.482;2023-02-22T07:05:21;101313.91;;;5.10;100.00
78142;BME280;67393;52.620;13.482;2023-02-22T07:07:49;101309.47;;;4.99;100.00
78142;BME280;67393;52.620;13.482;2023-02-22T07:10:19;101313.91;;;5.04;100.00
78142;BME280;67393;52.620;13.482;2023-02-22T07:12:46;101313.00;;;5.07;100.00
78142;BME280;67393;52.620;13.482;2023-02-22T07:15:13;101313.06;;;5.11;100.00
78142;BME280;67393;52.620;13.482;2023-02-22T07:17:39;101307.78;;;5.18;100.00
78142;BME280;67393;52.620;13.482;2023-02-22T07:20:06;101320.94;;;5.18;100.00
78142;BME280;67393;52.620;13.482;2023-02-22T07:22:33;101321.84;;;5.17;100.00
78142;BME280;67393;52.620;13.482;2023-02-22T07:24:59;101316.56;;;5.18;100.00
78142;BME280;67393;52.620;13.482;2023-02-22T07:27:26;101313.06;;;5.21;100.00
78142;BME280;67393;52.620;13.482;2023-02-22T07:29:52;101307.78;;;5.18;100.00
78142;BME280;67393;52.620;13.482;2023-02-22T07:32:18;101312.22;;;5.34;100.00
78142;BME280;67393;52.620;13.482;2023-02-22T07:34:45;101313.16;;;5.47;100.00
78142;BME280;67393;52.620;13.482;2023-02-22T07:37:11;101315.78;;;5.48;100.00
78142;BME280;67393;52.620;13.482;2023-02-22T07:39:37;101315.81;;;5.60;100.00
78142;BME280;67393;52.620;13.482;2023-02-22T07:42:03;101318.47;;;5.74;100.00
78142;BME280;67393;52.620;13.482;2023-02-22T07:44:30;101320.22;;;5.68;100.00
78142;BME280;67393;52.620;13.482;2023-02-22T07:46:56;101316.69;;;5.64;100.00
78142;BME280;67393;52.620;13.482;2023-02-22T07:49:22;101326.38;;;5.80;100.00
78142;BME280;67393;52.620;13.482;2023-02-22T07:51:49;101319.38;;;5.81;100.00
78142;BME280;67393;52.620;13.482;2023-02-22T07:54:15;101317.63;;;5.94;100.00
78142;BME280;67393;52.620;13.482;2023-02-22T07:56:46;101314.13;;;5.95;100.00
78142;BME280;67393;52.620;13.482;2023-02-22T07:59:14;101307.97;;;6.05;100.00
78142;BME280;67393;52.620;13.482;2023-02-22T08:01:40;101315.03;;;6.15;100.00
78142;BME280;67393;52.620;13.482;2023-02-22T08:04:07;101316.75;;;6.18;100.00
78142;BME280;67393;52.620;13.482;2023-02-22T08:06:33;101322.03;;;6.24;100.00
78142;BME280;67393;52.620;13.482;2023-02-22T08:09:00;101323.78;;;6.31;100.00
78142;BME280;67393;52.620;13.482;2023-02-22T08:11:26;101318.53;;;6.23;100.00
78142;BME280;67393;52.620;13.482;2023-02-22T08:13:52;101316.78;;;6.11;100.00
78142;BME280;67393;52.620;13.482;2023-02-22T08:16:18;101313.22;;;6.11;100.00
78142;BME280;67393;52.620;13.482;2023-02-22T08:18:45;101311.47;;;6.10;100.00
78142;BME280;67393;52.620;13.482;2023-02-22T08:21:11;101317.66;;;6.15;100.00
78142;BME280;67393;52.620;13.482;2023-02-22T08:23:37;101318.53;;;6.23;100.00
78142;BME280;67393;52.620;13.482;2023-02-22T08:26:09;101319.38;;;6.28;100.00
78142;BME280;67393;52.620;13.482;2023-02-22T08:28:35;101312.38;;;6.23;100.00
78142;BME280;67393;52.620;13.482;2023-02-22T08:31:02;101312.38;;;6.17;100.00
78142;BME280;67393;52.620;13.482;2023-02-22T08:33:28;101314.13;;;6.18;100.00
78142;BME280;67393;52.620;13.482;2023-02-22T08:35:54;101319.41;;;6.24;100.00
78142;BME280;67393;52.620;13.482;2023-02-22T08:38:26;101323.75;;;6.26;100.00
78142;BME280;67393;52.620;13.482;2023-02-22T08:40:53;101314.09;;;6.22;100.00
78142;BME280;67393;52.620;13.482;2023-02-22T08:43:20;101315.88;;;6.19;100.00
78142;BME280;67393;52.620;13.482;2023-02-22T08:45:47;101322.03;;;6.19;100.00
78142;BME280;67393;52.620;13.482;2023-02-22T08:48:15;101331.69;;;6.00;100.00
78142;BME280;67393;52.620;13.482;2023-02-22T08:50:41;101324.66;;;6.01;100.00
78142;BME280;67393;52.620;13.482;2023-02-22T08:53:09;101317.63;;;6.10;100.00
78142;BME280;67393;52.620;13.482;2023-02-22T08:55:37;101329.03;;;6.11;100.00
78142;BME280;67393;52.620;13.482;2023-02-22T08:58:05;101320.28;;;6.14;100.00
78142;BME280;67393;52.620;13.482;2023-02-22T09:00:32;101317.63;;;6.06;100.00
78142;BME280;67393;52.620;13.482;2023-02-22T09:03:00;101315.91;;;6.16;100.00
78142;BME280;67393;52.620;13.482;2023-02-22T09:05:27;101318.50;;;6.28;100.00
78142;BME280;67393;52.620;13.482;2023-02-22T09:07:56;101322.03;;;6.25;100.00
78142;BME280;67393;52.620;13.482;2023-02-22T09:10:25;101322.00;;;6.33;100.00
78142;BME280;67393;52.620;13.482;2023-02-22T09:12:53;101329.06;;;6.39;100.00
78142;BME280;67393;52.620;13.482;2023-02-22T09:15:20;101324.66;;;6.42;100.00
78142;BME280;67393;52.620;13.482;2023-02-22T09:17:47;101321.97;;;6.59;100.00
78142;BME280;67393;52.620;13.482;2023-02-22T09:20:15;101331.69;;;6.46;100.00
78142;BME280;67393;52.620;13.482;2023-02-22T09:22:44;101317.63;;;6.53;100.00
78142;BME280;67393;52.620;13.482;2023-02-22T09:25:11;101326.38;;;6.62;100.00
78142;BME280;67393;52.620;13.482;2023-02-22T09:27:43;101323.75;;;6.55;100.00
78142;BME280;67393;52.620;13.482;2023-02-22T09:30:17;101322.81;;;6.69;100.00
78142;BME280;67393;52.620;13.482;2023-02-22T09:32:44;101327.22;;;6.77;100.00
78142;BME280;67393;52.620;13.482;2023-02-22T09:35:11;101321.06;;;6.74;100.00
78142;BME280;67393;52.620;13.482;2023-02-22T09:37:37;101328.09;;;6.70;100.00
78142;BME280;67393;52.620;13.482;2023-02-22T09:40:04;101326.31;;;6.72;100.00
78142;BME280;67393;52.620;13.482;2023-02-22T09:42:34;101325.44;;;6.82;100.00
78142;BME280;67393;52.620;13.482;2023-02-22T09:45:15;101320.13;;;6.96;100.00
78142;BME280;67393;52.620;13.482;2023-02-22T09:47:48;101312.16;;;7.05;100.00
78142;BME280;67393;52.620;13.482;2023-02-22T09:50:25;101313.91;;;7.09;100.00
78142;BME280;67393;52.620;13.482;2023-02-22T09:53:13;101312.16;;;7.12;100.00
78142;BME280;67393;52.620;13.482;2023-02-22T09:55:48;101307.75;;;7.12;100.00
78142;BME280;67393;52.620;13.482;2023-02-22T09:58:32;101315.69;;;7.04;100.00
78142;BME280;67393;52.620;13.482;2023-02-22T10:01:23;101307.72;;;7.17;100.00
78142;BME280;67393;52.620;13.482;2023-02-22T10:06:20;101307.63;;;7.33;100.00
78142;BME280;67393;52.620;13.482;2023-02-22T10:08:48;101296.16;;;7.39;100.00
78142;BME280;67393;52.620;13.482;2023-02-22T10:11:43;101301.38;;;7.50;100.00
78142;BME280;67393;52.620;13.482;2023-02-22T10:22:58;101294.25;;;7.59;100.00
78142;BME280;67393;52.620;13.482;2023-02-22T10:25:30;101289.75;;;7.72;100.00
78142;BME280;67393;52.620;13.482;2023-02-22T10:28:01;101287.91;;;7.87;100.00
78142;BME280;67393;52.620;13.482;2023-02-22T10:30:33;101287.03;;;7.83;100.00
78142;BME280;67393;52.620;13.482;2023-02-22T10:33:09;101287.06;;;7.80;100.00
78142;BME280;67393;52.620;13.482;2023-02-22T10:35:38;101282.59;;;7.90;100.00
78142;BME280;67393;52.620;13.482;2023-02-22T10:38:21;101284.47;;;7.74;100.00
78142;BME280;67393;52.620;13.482;2023-02-22T10:40:53;101285.38;;;7.71;100.00
78142;BME280;67393;52.620;13.482;2023-02-22T10:43:21;101279.06;;;7.91;100.00
78142;BME280;67393;52.620;13.482;2023-02-22T10:45:50;101285.31;;;7.82;100.00
78142;BME280;67393;52.620;13.482;2023-02-22T10:48:18;101280.88;;;7.86;100.00
78142;BME280;67393;52.620;13.482;2023-02-22T10:50:46;101274.69;;;7.87;100.00
78142;BME280;67393;52.620;13.482;2023-02-22T10:53:14;101272.81;;;7.99;100.00
78142;BME280;67393;52.620;13.482;2023-02-22T10:58:51;101272.63;;;8.21;100.00
78142;BME280;67393;52.620;13.482;2023-02-22T11:04:00;101267.25;;;8.31;100.00
78142;BME280;67393;52.620;13.482;2023-02-22T11:06:27;101271.59;;;8.40;100.00
78142;BME280;67393;52.620;13.482;2023-02-22T11:09:09;101274.25;;;8.37;100.00
78142;BME280;67393;52.620;13.482;2023-02-22T11:11:38;101269.09;;;8.20;100.00
78142;BME280;67393;52.620;13.482;2023-02-22T11:14:05;101266.44;;;8.23;100.00
78142;BME280;67393;52.620;13.482;2023-02-22T11:16:34;101272.63;;;8.21;100.00
78142;BME280;67393;52.620;13.482;2023-02-22T11:21:36;101261.00;;;8.40;100.00
78142;BME280;67393;52.620;13.482;2023-02-22T11:24:05;101259.94;;;8.56;100.00
78142;BME280;67393;52.620;13.482;2023-02-22T11:26:37;101264.31;;;8.61;100.00
78142;BME280;67393;52.620;13.482;2023-02-22T11:29:20;101264.28;;;8.65;100.00
78142;BME280;67393;52.620;13.482;2023-02-22T11:31:47;101260.00;;;8.53;100.00
78142;BME280;67393;52.620;13.482;2023-02-22T11:36:52;101256.16;;;8.79;100.00
78142;BME280;67393;52.620;13.482;2023-02-22T11:39:31;101241.97;;;8.83;100.00
78142;BME280;67393;52.620;13.482;2023-02-22T11:42:17;101248.19;;;8.82;100.00
78142;BME280;67393;52.620;13.482;2023-02-22T11:44:45;101241.13;;;8.84;100.00
78142;BME280;67393;52.620;13.482;2023-02-22T11:47:11;101237.38;;;8.99;100.00
78142;BME280;67393;52.620;13.482;2023-02-22T11:49:41;101230.28;;;9.01;100.00
78142;BME280;67393;52.620;13.482;2023-02-22T11:52:30;101236.44;;;9.04;100.00
78142;BME280;67393;52.620;13.482;2023-02-22T11:55:16;101224.91;;;9.09;100.00
78142;BME280;67393;52.620;13.482;2023-02-22T11:58:23;101223.25;;;9.00;100.00
78142;BME280;67393;52.620;13.482;2023-02-22T12:06:25;101222.38;;;8.99;100.00
78142;BME280;67393;52.620;13.482;2023-02-22T12:09:12;101218.00;;;8.97;100.00
78142;BME280;67393;52.620;13.482;2023-02-22T12:11:58;101218.00;;;8.95;100.00
78142;BME280;67393;52.620;13.482;2023-02-22T12:15:12;101219.53;;;9.13;100.00
78142;BME280;67393;52.620;13.482;2023-02-22T12:20:41;101214.34;;;9.07;100.00
78142;BME280;67393;52.620;13.482;2023-02-22T12:23:24;101214.34;;;9.05;100.00
78142;BME280;67393;52.620;13.482;2023-02-22T12:26:33;101210.13;;;8.91;100.00
78142;BME280;67393;52.620;13.482;2023-02-22T12:29:33;101209.25;;;8.90;100.00
78142;BME280;67393;52.620;13.482;2023-02-22T12:32:11;101204.06;;;8.83;100.00
78142;BME280;67393;52.620;13.482;2023-02-22T12:34:46;101203.28;;;8.74;100.00
78142;BME280;67393;52.620;13.482;2023-02-22T12:37:18;101207.72;;;8.72;100.00
78142;BME280;67393;52.620;13.482;2023-02-22T12:40:20;101205.91;;;8.77;100.00
78142;BME280;67393;52.620;13.482;2023-02-22T12:43:03;101201.34;;;8.87;100.00
78142;BME280;67393;52.620;13.482;2023-02-22T12:48:46;101208.31;;;8.96;100.00
78142;BME280;67393;52.620;13.482;2023-02-22T12:51:26;101211.03;;;8.90;100.00
78142;BME280;67393;52.620;13.482;2023-02-22T12:54:06;101211.03;;;8.90;100.00
78142;BME280;67393;52.620;13.482;2023-02-22T12:57:04;101214.53;;;8.90;100.00
78142;BME280;67393;52.620;13.482;2023-02-22T12:59:32;101210.31;;;8.75;100.00
78142;BME280;67393;52.620;13.482;2023-02-22T13:04:39;101207.63;;;8.82;100.00
78142;BME280;67393;52.620;13.482;2023-02-22T13:13:15;101215.31;;;8.98;100.00
78142;BME280;67393;52.620;13.482;2023-02-22T13:15:58;101203.00;;;8.97;100.00
78142;BME280;67393;52.620;13.482;2023-02-22T13:18:33;101198.47;;;9.05;100.00
78142;BME280;67393;52.620;13.482;2023-02-22T13:26:24;101195.00;;;9.00;100.00
78142;BME280;67393;52.620;13.482;2023-02-22T13:29:09;101193.38;;;8.92;100.00
78142;BME280;67393;52.620;13.482;2023-02-22T13:32:03;101192.31;;;9.03;100.00
78142;BME280;67393;52.620;13.482;2023-02-22T13:34:54;101183.38;;;9.11;100.00
78142;BME280;67393;52.620;13.482;2023-02-22T13:37:48;101178.03;;;9.15;100.00
78142;BME280;67393;52.620;13.482;2023-02-22T13:40:49;101188.84;;;8.98;100.00
78142;BME280;67393;52.620;13.482;2023-02-22T13:43:50;101189.69;;;9.03;100.00
78142;BME280;67393;52.620;13.482;2023-02-22T13:46:30;101187.97;;;8.99;100.00
78142;BME280;67393;52.620;13.482;2023-02-22T13:51:42;101185.38;;;8.96;100.00
78142;BME280;67393;52.620;13.482;2023-02-22T13:56:42;101181.84;;;8.96;100.00
78142;BME280;67393;52.620;13.482;2023-02-22T13:59:33;101185.25;;;9.02;100.00
78142;BME280;67393;52.620;13.482;2023-02-22T14:02:03;101173.75;;;9.05;100.00
78142;BME280;67393;52.620;13.482;2023-02-22T14:09:52;101171.38;;;8.88;100.00
78142;BME280;67393;52.620;13.482;2023-02-22T14:15:15;101168.44;;;9.08;100.00
78142;BME280;67393;52.620;13.482;2023-02-22T14:17:59;101171.03;;;9.11;100.00
78142;BME280;67393;52.620;13.482;2023-02-22T14:20:32;101162.16;;;9.14;100.00
78142;BME280;67393;52.620;13.482;2023-02-22T14:25:49;101164.94;;;9.03;100.00
78142;BME280;67393;52.620;13.482;2023-02-22T14:29:02;101165.03;;;8.98;100.00
78142;BME280;67393;52.620;13.482;2023-02-22T14:34:09;101168.59;;;8.96;100.00
78142;BME280;67393;52.620;13.482;2023-02-22T14:41:56;101153.88;;;8.75;100.00
78142;BME280;67393;52.620;13.482;2023-02-22T14:44:24;101150.41;;;8.73;100.00
78142;BME280;67393;52.620;13.482;2023-02-22T14:46:55;101154.75;;;8.77;100.00
78142;BME280;67393;52.620;13.482;2023-02-22T14:49:26;101146.91;;;8.68;100.00
78142;BME280;67393;52.620;13.482;2023-02-22T14:52:05;101154.78;;;8.72;100.00
78142;BME280;67393;52.620;13.482;2023-02-22T14:54:53;101147.75;;;8.73;100.00
78142;BME280;67393;52.620;13.482;2023-02-22T14:57:26;101142.50;;;8.70;100.00
78142;BME280;67393;52.620;13.482;2023-02-22T15:00:04;101139.88;;;8.67;100.00
78142;BME280;67393;52.620;13.482;2023-02-22T15:02:39;101146.09;;;8.64;100.00
78142;BME280;67393;52.620;13.482;2023-02-22T15:05:05;101149.66;;;8.60;100.00
78142;BME280;67393;52.620;13.482;2023-02-22T15:07:32;101147.81;;;8.67;100.00
78142;BME280;67393;52.620;13.482;2023-02-22T15:10:16;101145.22;;;8.64;100.00
78142;BME280;67393;52.620;13.482;2023-02-22T15:13:00;101139.97;;;8.61;100.00
78142;BME280;67393;52.620;13.482;2023-02-22T15:15:29;101132.97;;;8.56;100.00
78142;BME280;67393;52.620;13.482;2023-02-22T15:17:56;101139.97;;;8.62;100.00
78142;BME280;67393;52.620;13.482;2023-02-22T15:20:23;101139.97;;;8.61;100.00
78142;BME280;67393;52.620;13.482;2023-02-22T15:22:51;101138.16;;;8.64;100.00
78142;BME280;67393;52.620;13.482;2023-02-22T15:25:25;101129.47;;;8.54;100.00
78142;BME280;67393;52.620;13.482;2023-02-22T15:27:52;101140.91;;;8.58;100.00
78142;BME280;67393;52.620;13.482;2023-02-22T15:30:28;101127.66;;;8.56;100.00
78142;BME280;67393;52.620;13.482;2023-02-22T15:32:54;101134.00;;;8.46;100.00
78142;BME280;67393;52.620;13.482;2023-02-22T15:35:30;101132.19;;;8.48;100.00
78142;BME280;67393;52.620;13.482;2023-02-22T15:38:03;101134.88;;;8.45;100.00
78142;BME280;67393;52.620;13.482;2023-02-22T15:40:29;101134.91;;;8.44;100.00
78142;BME280;67393;52.620;13.482;2023-02-22T15:42:56;101133.19;;;8.40;100.00
78142;BME280;67393;52.620;13.482;2023-02-22T15:45:23;101134.06;;;8.42;100.00
78142;BME280;67393;52.620;13.482;2023-02-22T15:47:51;101135.00;;;8.35;100.00
78142;BME280;67393;52.620;13.482;2023-02-22T15:50:29;101137.66;;;8.31;100.00
78142;BME280;67393;52.620;13.482;2023-02-22T15:53:08;101130.56;;;8.35;100.00
78142;BME280;67393;52.620;13.482;2023-02-22T15:55:55;101134.22;;;8.26;100.00
78142;BME280;67393;52.620;13.482;2023-02-22T15:58:24;101128.06;;;8.24;100.00
78142;BME280;67393;52.620;13.482;2023-02-22T16:01:06;101128.19;;;8.14;100.00
78142;BME280;67393;52.620;13.482;2023-02-22T16:03:38;101130.84;;;8.12;100.00
78142;BME280;67393;52.620;13.482;2023-02-22T16:06:08;101121.16;;;8.10;100.00
78142;BME280;67393;52.620;13.482;2023-02-22T16:08:57;101123.91;;;8.03;100.00
78142;BME280;67393;52.620;13.482;2023-02-22T16:11:36;101123.06;;;7.98;100.00
78142;BME280;67393;52.620;13.482;2023-02-22T16:14:06;101121.38;;;7.93;100.00
78142;BME280;67393;52.620;13.482;2023-02-22T16:16:47;101123.16;;;7.92;100.00
78142;BME280;67393;52.620;13.482;2023-02-22T16:19:28;101118.69;;;7.94;100.00
78142;BME280;67393;52.620;13.482;2023-02-22T16:21:59;101125.00;;;7.84;100.00
78142;BME280;67393;52.620;13.482;2023-02-22T16:24:29;101122.34;;;7.82;100.00
78142;BME280;67393;52.620;13.482;2023-02-22T16:29:37;101117.06;;;7.82;100.00
78142;BME280;67393;52.620;13.482;2023-02-22T16:32:04;101116.22;;;7.79;100.00
78142;BME280;67393;52.620;13.482;2023-02-22T16:34:30;101111.81;;;7.81;100.00
78142;BME280;67393;52.620;13.482;2023-02-22T16:36:57;101120.59;;;7.81;100.00
78142;BME280;67393;52.620;13.482;2023-02-22T16:39:25;101116.22;;;7.79;100.00
78142;BME280;67393;52.620;13.482;2023-02-22T16:41:55;101116.25;;;7.77;100.00
78142;BME280;67393;52.620;13.482;2023-02-22T16:44:22;101116.31;;;7.73;100.00
78142;BME280;67393;52.620;13.482;2023-02-22T16:46:49;101118.06;;;7.71;100.00
78142;BME280;67393;52.620;13.482;2023-02-22T16:49:15;101126.00;;;7.71;100.00
78142;BME280;67393;52.620;13.482;2023-02-22T16:51:50;101119.88;;;7.66;100.00
78142;BME280;67393;52.620;13.482;2023-02-22T16:54:25;101117.22;;;7.67;100.00
78142;BME280;67393;52.620;13.482;2023-02-22T16:56:54;101117.28;;;7.63;100.00
78142;BME280;67393;52.620;13.482;2023-02-22T16:59:21;101118.13;;;7.66;100.00
78142;BME280;67393;52.620;13.482;2023-02-22T17:01:48;101113.75;;;7.62;100.00
78142;BME280;67393;52.620;13.482;2023-02-22T17:04:20;101112.97;;;7.51;100.00
78142;BME280;67393;52.620;13.482;2023-02-22T17:06:47;101117.31;;;7.56;100.00
78142;BME280;67393;52.620;13.482;2023-02-22T17:09:14;101116.44;;;7.57;100.00
78142;BME280;67393;52.620;13.482;2023-02-22T17:11:41;101113.88;;;7.48;100.00
78142;BME280;67393;52.620;13.482;2023-02-22T17:14:09;101112.13;;;7.50;100.00
78142;BME280;67393;52.620;13.482;2023-02-22T17:16:38;101114.81;;;7.43;100.00
78142;BME280;67393;52.620;13.482;2023-02-22T17:19:11;101114.88;;;7.38;100.00
78142;BME280;67393;52.620;13.482;2023-02-22T17:21:40;101120.06;;;7.44;100.00
78142;BME280;67393;52.620;13.482;2023-02-22T17:24:10;101117.47;;;7.40;100.00
78142;BME280;67393;52.620;13.482;2023-02-22T17:26:37;101114.88;;;7.38;100.00
78142;BME280;67393;52.620;13.482;2023-02-22T17:29:03;101116.66;;;7.33;100.00
78142;BME280;67393;52.620;13.482;2023-02-22T17:31:30;101114.94;;;7.30;100.00
78142;BME280;67393;52.620;13.482;2023-02-22T17:34:00;101117.59;;;7.26;100.00
78142;BME280;67393;52.620;13.482;2023-02-22T17:36:30;101120.25;;;7.24;100.00
78142;BME280;67393;52.620;13.482;2023-02-22T17:38:58;101118.59;;;7.13;100.00
78142;BME280;67393;52.620;13.482;2023-02-22T17:41:24;101113.28;;;7.14;100.00
78142;BME280;67393;52.620;13.482;2023-02-22T17:43:51;101119.47;;;7.13;100.00
78142;BME280;67393;52.620;13.482;2023-02-22T17:46:17;101115.13;;;7.07;100.00
78142;BME280;67393;52.620;13.482;2023-02-22T17:48:44;101122.16;;;7.05;100.00
78142;BME280;67393;52.620;13.482;2023-02-22T17:51:11;101115.16;;;7.01;100.00
78142;BME280;67393;52.620;13.482;2023-02-22T17:53:37;101114.28;;;6.98;100.00
78142;BME280;67393;52.620;13.482;2023-02-22T17:56:09;101112.59;;;6.88;100.00
78142;BME280;67393;52.620;13.482;2023-02-22T17:58:35;101110.84;;;6.83;100.00
78142;BME280;67393;52.620;13.482;2023-02-22T18:01:02;101116.97;;;6.90;100.00
78142;BME280;67393;52.620;13.482;2023-02-22T18:03:29;101114.38;;;6.82;100.00
78142;BME280;67393;52.620;13.482;2023-02-22T18:05:58;101124.16;;;6.70;100.00
78142;BME280;67393;52.620;13.482;2023-02-22T18:08:27;101117.97;;;6.72;100.00
78142;BME280;67393;52.620;13.482;2023-02-22T18:10:54;101115.31;;;6.72;100.00
78142;BME280;67393;52.620;13.482;2023-02-22T18:13:22;101113.66;;;6.62;100.00
78142;BME280;67393;52.620;13.482;2023-02-22T18:15:49;101117.19;;;6.56;100.00
78142;BME280;67393;52.620;13.482;2023-02-22T18:18:16;101113.69;;;6.54;100.00
78142;BME280;67393;52.620;13.482;2023-02-22T18:20:44;101112.81;;;6.54;100.00
78142;BME280;67393;52.620;13.482;2023-02-22T18:23:16;101113.69;;;6.54;100.00
78142;BME280;67393;52.620;13.482;2023-02-22T18:25:47;101113.78;;;6.33;100.00
78142;BME280;67393;52.620;13.482;2023-02-22T18:28:34;101111.16;;;6.30;100.00
78142;BME280;67393;52.620;13.482;2023-02-22T18:31:05;101111.19;;;6.22;100.00
78142;BME280;67393;52.620;13.482;2023-02-22T18:33:32;101115.63;;;6.09;100.00
78142;BME280;67393;52.620;13.482;2023-02-22T18:35:58;101112.97;;;6.11;100.00
78142;BME280;67393;52.620;13.482;2023-02-22T18:38:24;101110.38;;;5.99;100.00
78142;BME280;67393;52.620;13.482;2023-02-22T18:40:59;101113.03;;;6.02;100.00
78142;BME280;67393;52.620;13.482;2023-02-22T18:43:26;101119.16;;;6.08;100.00
78142;BME280;67393;52.620;13.482;2023-02-22T18:45:53;101108.63;;;6.05;100.00
78142;BME280;67393;52.620;13.482;2023-02-22T18:48:19;101108.63;;;6.05;100.00
78142;BME280;67393;52.620;13.482;2023-02-22T18:50:46;101104.25;;;5.97;100.00
78142;BME280;67393;52.620;13.482;2023-02-22T18:53:12;101103.38;;;5.79;100.00
78142;BME280;67393;52.620;13.482;2023-02-22T18:55:39;101107.75;;;5.86;100.00
78142;BME280;67393;52.620;13.482;2023-02-22T18:58:05;101104.25;;;5.86;100.00
78142;BME280;67393;52.620;13.482;2023-02-22T19:00:33;101112.16;;;5.89;100.00
78142;BME280;67393;52.620;13.482;2023-02-22T19:02:59;101106.00;;;5.90;100.00
78142;BME280;67393;52.620;13.482;2023-02-22T19:05:26;101102.50;;;5.82;100.00
78142;BME280;67393;52.620;13.482;2023-02-22T19:07:52;101100.78;;;5.81;100.00
78142;BME280;67393;52.620;13.482;2023-02-22T19:10:18;101106.00;;;5.84;100.00
78142;BME280;67393;52.620;13.482;2023-02-22T19:12:45;101101.63;;;5.78;100.00
78142;BME280;67393;52.620;13.482;2023-02-22T19:15:11;101102.53;;;5.80;100.00
78142;BME280;67393;52.620;13.482;2023-02-22T19:17:37;101099.88;;;5.79;100.00
78142;BME280;67393;52.620;13.482;2023-02-22T19:20:06;101102.53;;;5.70;100.00
78142;BME280;67393;52.620;13.482;2023-02-22T19:22:32;101101.66;;;5.77;100.00